Terminal Aerodrome Forecast
Issued by NWS

Home | Current Version | Previous Version | Text Only | Print | Product List | Glossary On
Versions: 1 2 3 4 5 6 7 8 9 10 11 12 13 14 15 16 17 18 19 20
000
FTUS43 KEAX 222300
TAFMKC
TAF
KMKC 222325Z 2300/2324 16008KT P6SM SCT250
     FM230630 17009KT 5SM -SHRA OVC025
     FM231400 21009KT P6SM BKN035
     FM231800 24008KT P6SM SCT040=

USA.gov is the U.S. government's official web portal to all federal, state and local government web resources and services.